createdAt,value
2022-08-11T00:00:02.801Z,22.50
2022-08-11T00:02:37.525Z,22.50
2022-08-11T00:05:10.496Z,22.50
2022-08-11T00:07:45.018Z,22.40
2022-08-11T00:10:15.551Z,22.40
2022-08-11T00:12:45.153Z,22.30
2022-08-11T00:15:14.120Z,22.30
2022-08-11T00:17:42.832Z,22.20
2022-08-11T00:20:17.113Z,22.20
2022-08-11T00:22:48.227Z,22.10
2022-08-11T00:25:19.101Z,22.10
2022-08-11T00:27:49.031Z,22.10
2022-08-11T00:30:18.418Z,22.10
2022-08-11T00:32:56.213Z,22.00
2022-08-11T00:35:55.090Z,22.00
2022-08-11T00:38:25.741Z,22.00
2022-08-11T00:41:00.650Z,22.00
2022-08-11T00:43:48.789Z,22.00
2022-08-11T00:46:23.746Z,21.90
2022-08-11T00:49:04.891Z,21.90
2022-08-11T00:52:03.962Z,21.90
2022-08-11T00:55:04.394Z,21.90
2022-08-11T00:57:57.417Z,21.80
2022-08-11T01:00:27.756Z,21.70
2022-08-11T01:03:19.431Z,21.70
2022-08-11T01:06:13.031Z,21.60
2022-08-11T01:09:22.388Z,21.60
2022-08-11T01:12:06.553Z,21.60
2022-08-11T01:15:12.270Z,21.50
2022-08-11T01:18:28.944Z,21.50
2022-08-11T01:21:14.102Z,21.40
2022-08-11T01:24:40.167Z,21.40
2022-08-11T01:27:22.556Z,21.30
2022-08-11T01:30:19.088Z,21.30
2022-08-11T01:33:26.754Z,21.30
2022-08-11T01:36:41.185Z,21.20
2022-08-11T01:39:36.309Z,21.20
2022-08-11T01:42:48.763Z,21.10
2022-08-11T01:45:31.733Z,21.10
2022-08-11T01:48:06.783Z,21.10
2022-08-11T01:50:48.209Z,21.10
2022-08-11T01:53:29.735Z,21.10
2022-08-11T01:56:11.545Z,21.10
2022-08-11T01:58:45.877Z,21.00
2022-08-11T02:01:27.721Z,21.00
2022-08-11T02:03:59.929Z,21.00
2022-08-11T02:06:56.736Z,21.00
2022-08-11T02:09:54.529Z,21.00
2022-08-11T02:12:39.782Z,20.90
2022-08-11T02:15:16.798Z,20.90
2022-08-11T02:18:00.134Z,20.80
2022-08-11T02:20:50.536Z,20.80
2022-08-11T02:24:04.797Z,20.80
2022-08-11T02:26:40.612Z,20.70
2022-08-11T02:29:17.108Z,20.70
2022-08-11T02:32:28.761Z,20.70
2022-08-11T02:35:13.464Z,20.70
2022-08-11T02:37:53.794Z,20.60
2022-08-11T02:40:35.473Z,20.60
2022-08-11T02:43:15.128Z,20.60
2022-08-11T02:45:55.705Z,20.60
2022-08-11T02:48:53.604Z,20.60
2022-08-11T02:51:28.834Z,20.60
2022-08-11T02:54:08.538Z,20.60
2022-08-11T02:56:46.445Z,20.50
2022-08-11T02:59:44.071Z,20.50
2022-08-11T03:02:21.457Z,20.50
2022-08-11T03:05:03.130Z,20.40
2022-08-11T03:07:37.356Z,20.40
2022-08-11T03:10:14.321Z,20.40
2022-08-11T03:13:07.611Z,20.40
2022-08-11T03:16:06.919Z,20.40
2022-08-11T03:18:42.452Z,20.40
2022-08-11T03:21:19.252Z,20.30
2022-08-11T03:23:57.006Z,20.30
2022-08-11T03:26:30.789Z,20.30
2022-08-11T03:29:09.993Z,20.30
2022-08-11T03:31:47.984Z,20.30
2022-08-11T03:34:18.591Z,20.30
2022-08-11T03:37:17.777Z,20.30
2022-08-11T03:39:58.895Z,20.30
2022-08-11T03:42:41.578Z,20.30
2022-08-11T03:45:21.765Z,20.30
2022-08-11T03:48:05.042Z,20.30
2022-08-11T03:50:56.478Z,20.30
2022-08-11T03:53:56.987Z,20.30
2022-08-11T03:57:09.033Z,20.30
2022-08-11T04:00:11.171Z,20.20
2022-08-11T04:03:31.092Z,20.30
2022-08-11T04:06:43.149Z,20.30
2022-08-11T04:09:46.830Z,20.30
2022-08-11T04:12:35.925Z,20.30
2022-08-11T04:16:10.978Z,20.30
2022-08-11T04:19:18.795Z,20.30
2022-08-11T04:22:37.178Z,20.30
2022-08-11T04:25:24.780Z,20.30
2022-08-11T04:28:30.443Z,20.30
2022-08-11T04:31:08.265Z,20.30
2022-08-11T04:34:01.053Z,20.30
2022-08-11T04:37:29.333Z,20.40
2022-08-11T04:40:33.940Z,20.50
2022-08-11T04:44:02.467Z,20.50
2022-08-11T04:47:09.100Z,20.50
2022-08-11T04:50:13.823Z,20.50
2022-08-11T04:53:20.628Z,20.50
2022-08-11T04:56:24.305Z,20.50
2022-08-11T04:59:32.944Z,20.50
2022-08-11T05:02:37.732Z,20.60
2022-08-11T05:05:34.585Z,20.60
2022-08-11T05:08:45.029Z,20.60
2022-08-11T05:11:37.203Z,20.70
2022-08-11T05:14:47.636Z,20.80
2022-08-11T05:17:36.514Z,20.90
2022-08-11T05:20:22.746Z,20.90
2022-08-11T05:23:11.414Z,21.00
2022-08-11T05:26:45.021Z,21.10
2022-08-11T05:29:20.081Z,21.20
2022-08-11T05:32:14.075Z,21.30
2022-08-11T05:34:52.997Z,21.30
2022-08-11T05:37:27.443Z,21.40
2022-08-11T05:40:24.040Z,21.50
2022-08-11T05:43:14.673Z,21.50
2022-08-11T05:46:04.741Z,21.60
2022-08-11T05:48:53.762Z,21.60
2022-08-11T05:51:52.341Z,21.70
2022-08-11T05:54:43.004Z,21.80
2022-08-11T05:57:49.722Z,21.80
2022-08-11T06:00:15.979Z,21.90
2022-08-11T06:02:45.448Z,21.90
2022-08-11T06:05:14.320Z,21.90
2022-08-11T06:07:48.623Z,22.00
2022-08-11T06:10:28.730Z,22.10
2022-08-11T06:13:01.131Z,22.10
2022-08-11T06:15:31.157Z,22.20
2022-08-11T06:18:02.951Z,22.30
2022-08-11T06:20:36.960Z,22.30
2022-08-11T06:23:07.760Z,22.40
2022-08-11T06:25:37.495Z,22.40
2022-08-11T06:28:08.874Z,22.50
2022-08-11T06:30:41.040Z,22.50
2022-08-11T06:33:12.822Z,22.60
2022-08-11T06:35:50.180Z,22.60
2022-08-11T06:38:32.240Z,22.70
2022-08-11T06:41:23.188Z,22.70
2022-08-11T06:43:56.407Z,22.80
2022-08-11T06:46:29.768Z,22.80
2022-08-11T06:48:59.554Z,22.90
2022-08-11T06:51:28.116Z,22.90
2022-08-11T06:54:04.640Z,23.00
2022-08-11T06:57:25.953Z,23.00
2022-08-11T07:00:02.986Z,23.10
2022-08-11T07:02:35.027Z,23.10
2022-08-11T07:05:09.423Z,23.20
2022-08-11T07:08:41.517Z,23.30
2022-08-11T07:11:46.061Z,23.30
2022-08-11T07:14:38.613Z,23.40
2022-08-11T07:17:12.350Z,23.40
2022-08-11T07:20:01.397Z,23.40
2022-08-11T07:22:51.533Z,23.50
2022-08-11T07:25:38.444Z,23.50
2022-08-11T07:28:29.453Z,23.60
2022-08-11T07:31:02.693Z,23.60
2022-08-11T07:34:06.409Z,23.70
2022-08-11T07:36:32.002Z,23.70
2022-08-11T07:39:01.463Z,23.80
2022-08-11T07:41:32.867Z,23.80
2022-08-11T07:44:08.954Z,23.90
2022-08-11T07:46:58.580Z,23.90
2022-08-11T07:49:48.623Z,24.00
2022-08-11T07:52:30.814Z,24.00
2022-08-11T07:55:02.212Z,24.10
2022-08-11T07:58:15.733Z,24.20
2022-08-11T08:00:55.905Z,24.20
2022-08-11T08:03:54.233Z,24.30
2022-08-11T08:06:42.878Z,24.30
2022-08-11T08:09:29.778Z,24.40
2022-08-11T08:12:18.515Z,24.50
2022-08-11T08:15:04.494Z,24.50
2022-08-11T08:18:09.476Z,24.60
2022-08-11T08:20:45.495Z,24.60
2022-08-11T08:23:15.644Z,24.70
2022-08-11T08:25:45.699Z,24.70
2022-08-11T08:28:16.493Z,24.80
2022-08-11T08:30:51.166Z,24.90
2022-08-11T08:33:22.279Z,24.90
2022-08-11T08:36:11.580Z,25.00
2022-08-11T08:38:43.891Z,25.00
2022-08-11T08:41:16.669Z,25.00
2022-08-11T08:43:49.131Z,25.10
2022-08-11T08:46:21.899Z,25.10
2022-08-11T08:48:53.207Z,25.20
2022-08-11T08:52:01.445Z,25.20
2022-08-11T08:54:31.594Z,25.20
2022-08-11T08:57:05.012Z,25.30
2022-08-11T08:59:47.580Z,25.30
2022-08-11T09:02:18.448Z,25.40
2022-08-11T09:05:03.761Z,25.40
2022-08-11T09:07:39.797Z,25.50
2022-08-11T09:10:12.161Z,25.50
2022-08-11T09:12:43.494Z,25.60
2022-08-11T09:15:15.048Z,25.60
2022-08-11T09:17:49.659Z,25.70
2022-08-11T09:20:21.749Z,25.70
2022-08-11T09:26:18.343Z,25.80
2022-08-11T09:28:47.881Z,25.90
2022-08-11T09:31:17.258Z,25.90
2022-08-11T09:33:46.098Z,26.00
2022-08-11T09:36:43.869Z,26.00
2022-08-11T09:39:31.473Z,26.00
2022-08-11T09:42:04.368Z,26.00
2022-08-11T09:44:48.823Z,26.00
2022-08-11T09:47:24.548Z,26.10
2022-08-11T09:49:56.276Z,26.20
2022-08-11T09:52:25.916Z,26.30
2022-08-11T09:54:55.708Z,26.30
2022-08-11T09:57:46.377Z,26.40
2022-08-11T10:00:16.168Z,26.40
2022-08-11T10:02:48.393Z,26.40
2022-08-11T10:05:36.679Z,26.50
2022-08-11T10:08:06.350Z,26.50
2022-08-11T10:10:37.695Z,26.60
2022-08-11T10:14:30.792Z,26.60
2022-08-11T10:16:15.551Z,26.70
2022-08-11T10:18:52.833Z,26.70
2022-08-11T10:21:29.251Z,26.80
2022-08-11T10:24:17.145Z,26.90
2022-08-11T10:26:55.446Z,26.90
2022-08-11T10:29:50.221Z,27.00
2022-08-11T10:32:49.323Z,27.10
2022-08-11T10:35:27.984Z,27.20
2022-08-11T10:38:06.616Z,27.30
2022-08-11T10:40:39.988Z,27.30
2022-08-11T10:43:14.285Z,27.30
2022-08-11T10:46:05.239Z,27.30
2022-08-11T10:48:38.626Z,27.30
2022-08-11T10:51:14.692Z,27.30
2022-08-11T10:54:03.412Z,27.30
2022-08-11T10:56:51.872Z,27.40
2022-08-11T10:59:20.532Z,27.40
2022-08-11T11:01:51.558Z,27.30
2022-08-11T11:04:22.760Z,27.30
2022-08-11T11:07:00.304Z,27.30
2022-08-11T11:09:32.331Z,27.30
2022-08-11T11:12:22.221Z,27.30
2022-08-11T11:15:17.812Z,27.30
2022-08-11T11:18:01.610Z,27.30
2022-08-11T11:20:37.528Z,27.30
2022-08-11T11:23:11.241Z,27.30
2022-08-11T11:26:10.125Z,27.40
2022-08-11T11:29:01.453Z,27.40
2022-08-11T11:31:37.202Z,27.40
2022-08-11T11:34:22.128Z,27.50
2022-08-11T11:36:51.766Z,27.60
2022-08-11T11:39:22.294Z,27.60
2022-08-11T11:41:51.214Z,27.60
2022-08-11T11:44:21.329Z,27.70
2022-08-11T11:46:49.736Z,27.70
2022-08-11T11:51:54.873Z,27.80
2022-08-11T11:54:26.559Z,27.80
2022-08-11T11:56:56.319Z,27.90
2022-08-11T11:59:49.705Z,28.00
2022-08-11T12:02:17.877Z,28.10
2022-08-11T12:04:48.833Z,28.10
2022-08-11T12:07:35.792Z,28.20
2022-08-11T12:10:05.251Z,28.30
2022-08-11T12:12:51.119Z,28.30
2022-08-11T12:15:30.861Z,28.30
2022-08-11T12:18:10.593Z,28.30
2022-08-11T12:20:40.808Z,28.30
2022-08-11T12:23:27.325Z,28.30
2022-08-11T12:26:28.691Z,28.30
2022-08-11T12:28:58.282Z,28.30
2022-08-11T12:31:27.000Z,28.40
2022-08-11T12:33:56.149Z,28.50
2022-08-11T12:36:25.944Z,28.50
2022-08-11T12:38:55.735Z,28.60
2022-08-11T12:41:42.035Z,28.70
2022-08-11T12:44:29.572Z,28.70
2022-08-11T12:47:01.028Z,28.80
2022-08-11T12:49:49.122Z,28.80
2022-08-11T12:52:23.408Z,28.80
2022-08-11T12:54:59.036Z,28.80
2022-08-11T12:57:52.225Z,28.90
2022-08-11T13:00:39.392Z,28.90
2022-08-11T13:03:27.296Z,28.90
2022-08-11T13:05:57.727Z,28.90
2022-08-11T13:08:29.706Z,29.00
2022-08-11T13:11:19.235Z,28.90
2022-08-11T13:13:55.600Z,28.90
2022-08-11T13:16:26.404Z,29.00
2022-08-11T13:18:55.407Z,29.00
2022-08-11T13:21:24.489Z,29.10
2022-08-11T13:23:59.656Z,29.10
2022-08-11T13:26:46.657Z,29.20
2022-08-11T13:29:24.348Z,29.10
2022-08-11T13:31:53.841Z,29.10
2022-08-11T13:34:24.097Z,29.10
2022-08-11T13:36:54.701Z,29.10
2022-08-11T13:39:26.578Z,29.10
2022-08-11T13:41:57.058Z,29.20
2022-08-11T13:44:28.501Z,29.30
2022-08-11T13:46:59.421Z,29.30
2022-08-11T13:49:28.765Z,29.50
2022-08-11T13:51:57.757Z,29.50
2022-08-11T13:54:31.178Z,29.60
2022-08-11T13:57:02.840Z,29.60
2022-08-11T13:59:31.901Z,29.60
2022-08-11T14:02:22.608Z,29.60
2022-08-11T14:05:00.284Z,29.70
2022-08-11T14:07:35.841Z,29.70
2022-08-11T14:10:08.970Z,29.70
2022-08-11T14:12:56.472Z,29.80
2022-08-11T14:15:28.922Z,29.80
2022-08-11T14:18:01.734Z,29.90
2022-08-11T14:20:52.961Z,29.90
2022-08-11T14:23:27.737Z,30.00
2022-08-11T14:26:16.077Z,30.00
2022-08-11T14:28:45.473Z,30.00
2022-08-11T14:31:15.849Z,29.90
2022-08-11T14:33:58.094Z,30.00
2022-08-11T14:36:29.793Z,30.00
2022-08-11T14:38:58.605Z,30.10
2022-08-11T14:42:11.465Z,30.10
2022-08-11T14:45:00.613Z,30.10
2022-08-11T14:47:31.736Z,30.10
2022-08-11T14:50:12.520Z,30.00
2022-08-11T14:52:48.689Z,30.00
2022-08-11T14:55:35.362Z,30.10
2022-08-11T14:58:06.478Z,30.10
2022-08-11T15:00:36.154Z,30.00
2022-08-11T15:03:12.260Z,30.10
2022-08-11T15:05:53.692Z,30.20
2022-08-11T15:08:42.472Z,30.10
2022-08-11T15:11:26.769Z,30.10
2022-08-11T15:13:57.247Z,30.10
2022-08-11T15:16:43.816Z,30.00
2022-08-11T15:19:13.247Z,30.00
2022-08-11T15:21:59.372Z,30.10
2022-08-11T15:24:30.626Z,30.00
2022-08-11T15:27:19.591Z,30.00
2022-08-11T15:30:07.296Z,30.10
2022-08-11T15:32:57.112Z,30.20
2022-08-11T15:35:48.685Z,30.40
2022-08-11T15:38:19.519Z,30.70
2022-08-11T15:41:05.640Z,30.90
2022-08-11T15:44:10.197Z,31.30
2022-08-11T15:46:44.379Z,31.60
2022-08-11T15:49:21.974Z,31.70
2022-08-11T15:52:01.928Z,31.90
2022-08-11T15:54:33.424Z,32.00
2022-08-11T15:57:03.522Z,32.00
2022-08-11T15:59:52.585Z,32.10
2022-08-11T16:02:42.972Z,32.20
2022-08-11T16:05:44.975Z,32.50
2022-08-11T16:08:05.050Z,32.70
2022-08-11T16:10:35.533Z,32.80
2022-08-11T16:13:24.480Z,32.90
2022-08-11T16:16:14.093Z,33.00
2022-08-11T16:18:51.450Z,33.00
2022-08-11T16:21:34.452Z,32.90
2022-08-11T16:24:07.726Z,32.80
2022-08-11T16:27:08.629Z,32.90
2022-08-11T16:29:32.285Z,33.00
2022-08-11T16:32:20.716Z,33.10
2022-08-11T16:35:11.873Z,33.20
2022-08-11T16:37:59.330Z,33.30
2022-08-11T16:40:29.565Z,33.20
2022-08-11T16:43:16.399Z,33.10
2022-08-11T16:46:03.246Z,33.00
2022-08-11T16:48:38.268Z,32.90
2022-08-11T16:51:11.605Z,33.00
2022-08-11T16:53:54.828Z,33.00
2022-08-11T16:56:32.877Z,32.90
2022-08-11T16:59:16.713Z,33.00
2022-08-11T17:01:50.021Z,33.20
2022-08-11T17:04:48.449Z,33.30
2022-08-11T17:07:41.623Z,33.40
2022-08-11T17:10:51.752Z,33.30
2022-08-11T17:13:29.345Z,33.50
2022-08-11T17:16:12.915Z,33.70
2022-08-11T17:18:52.539Z,33.80
2022-08-11T17:21:26.299Z,33.90
2022-08-11T17:23:59.007Z,33.70
2022-08-11T17:26:46.795Z,33.60
2022-08-11T17:29:16.122Z,33.50
2022-08-11T17:32:03.236Z,33.40
2022-08-11T17:34:49.373Z,33.20
2022-08-11T17:37:18.630Z,33.00
2022-08-11T17:39:50.406Z,32.80
2022-08-11T17:42:36.794Z,32.60
2022-08-11T17:45:24.176Z,32.40
2022-08-11T17:50:46.808Z,32.00
2022-08-11T17:53:30.570Z,31.70
2022-08-11T17:56:28.887Z,31.50
2022-08-11T17:59:17.532Z,31.20
2022-08-11T18:01:47.121Z,31.00
2022-08-11T18:04:22.356Z,30.80
2022-08-11T18:06:55.432Z,30.70
2022-08-11T18:09:42.741Z,30.60
2022-08-11T18:12:29.326Z,30.50
2022-08-11T18:15:17.381Z,30.40
2022-08-11T18:18:04.675Z,30.30
2022-08-11T18:20:50.990Z,30.10
2022-08-11T18:23:46.182Z,30.00
2022-08-11T18:26:38.207Z,29.90
2022-08-11T18:29:26.171Z,29.80
2022-08-11T18:32:21.835Z,29.60
2022-08-11T18:35:10.949Z,29.50
2022-08-11T18:38:02.091Z,29.30
2022-08-11T18:40:50.620Z,29.20
2022-08-11T18:43:39.717Z,29.10
2022-08-11T18:46:28.165Z,29.00
2022-08-11T18:49:34.268Z,28.90
2022-08-11T18:52:34.248Z,28.70
2022-08-11T18:55:21.568Z,28.70
2022-08-11T18:58:10.634Z,28.60
2022-08-11T19:00:58.147Z,28.50
2022-08-11T19:03:48.677Z,28.40
2022-08-11T19:06:40.970Z,28.30
2022-08-11T19:09:30.424Z,28.20
2022-08-11T19:12:18.206Z,28.10
2022-08-11T19:15:08.820Z,28.10
2022-08-11T19:17:59.211Z,27.90
2022-08-11T19:20:47.840Z,27.80
2022-08-11T19:23:37.309Z,27.70
2022-08-11T19:26:24.420Z,27.60
2022-08-11T19:30:04.985Z,27.60
2022-08-11T19:32:21.498Z,27.50
2022-08-11T19:35:07.704Z,27.40
2022-08-11T19:37:54.459Z,27.40
2022-08-11T19:40:41.379Z,27.30
2022-08-11T19:43:28.032Z,27.30
2022-08-11T19:46:16.856Z,27.20
2022-08-11T19:49:08.249Z,27.10
2022-08-11T19:51:55.584Z,27.10
2022-08-11T19:54:44.553Z,27.00
2022-08-11T19:57:35.786Z,26.90
2022-08-11T20:00:29.919Z,26.80
2022-08-11T20:03:16.693Z,26.80
2022-08-11T20:06:05.993Z,26.70
2022-08-11T20:08:57.843Z,26.60
2022-08-11T20:11:45.212Z,26.50
2022-08-11T20:14:32.763Z,26.40
2022-08-11T20:17:24.424Z,26.40
2022-08-11T20:20:11.102Z,26.30
2022-08-11T20:22:59.499Z,26.20
2022-08-11T20:25:45.986Z,26.20
2022-08-11T20:28:32.930Z,26.10
2022-08-11T20:31:18.784Z,26.10
2022-08-11T20:34:05.369Z,26.10
2022-08-11T20:36:54.811Z,26.00
2022-08-11T20:39:44.111Z,26.00
2022-08-11T20:42:31.274Z,26.00
2022-08-11T20:45:23.518Z,26.00
2022-08-11T20:48:14.575Z,25.90
2022-08-11T20:51:06.296Z,25.80
2022-08-11T20:53:54.119Z,25.70
2022-08-11T20:56:44.259Z,25.70
2022-08-11T20:59:33.365Z,25.60
2022-08-11T21:02:29.710Z,25.60
2022-08-11T21:05:19.689Z,25.50
2022-08-11T21:08:25.547Z,25.50
2022-08-11T21:11:14.042Z,25.50
2022-08-11T21:14:16.374Z,25.40
2022-08-11T21:17:26.941Z,25.40
2022-08-11T21:20:17.062Z,25.30
2022-08-11T21:23:10.606Z,25.30
2022-08-11T21:26:07.647Z,25.30
2022-08-11T21:28:57.899Z,25.20
2022-08-11T21:31:47.374Z,25.20
2022-08-11T21:34:37.268Z,25.20
2022-08-11T21:37:27.381Z,25.20
2022-08-11T21:40:16.986Z,25.20
2022-08-11T21:43:05.300Z,25.20
2022-08-11T21:45:52.306Z,25.20
2022-08-11T21:48:40.476Z,25.10
2022-08-11T21:51:26.260Z,25.00
2022-08-11T21:54:12.613Z,25.00
2022-08-11T21:56:59.028Z,24.90
2022-08-11T21:59:56.859Z,24.90
2022-08-11T22:02:44.848Z,24.90
2022-08-11T22:05:40.569Z,24.90
2022-08-11T22:08:26.945Z,24.80
2022-08-11T22:11:12.917Z,24.80
2022-08-11T22:14:02.945Z,24.80
2022-08-11T22:16:53.658Z,24.70
2022-08-11T22:19:42.142Z,24.70
2022-08-11T22:22:31.138Z,24.60
2022-08-11T22:25:18.271Z,24.60
2022-08-11T22:28:04.635Z,24.50
2022-08-11T22:30:50.755Z,24.50
2022-08-11T22:33:37.698Z,24.40
2022-08-11T22:36:35.037Z,24.40
2022-08-11T22:39:22.974Z,24.30
2022-08-11T22:42:08.564Z,24.30
2022-08-11T22:44:54.454Z,24.30
2022-08-11T22:47:43.643Z,24.20
2022-08-11T22:50:30.964Z,24.20
2022-08-11T22:53:18.649Z,24.20
2022-08-11T22:56:06.228Z,24.20
2022-08-11T22:58:53.012Z,24.10
2022-08-11T23:01:38.830Z,24.10
2022-08-11T23:04:42.565Z,24.00
2022-08-11T23:07:51.231Z,24.00
2022-08-11T23:10:35.412Z,23.90
2022-08-11T23:13:22.650Z,23.80
2022-08-11T23:16:08.821Z,23.80
2022-08-11T23:18:54.574Z,23.70
2022-08-11T23:21:41.293Z,23.70
2022-08-11T23:24:28.125Z,23.60
2022-08-11T23:27:14.552Z,23.60
2022-08-11T23:30:02.319Z,23.60
2022-08-11T23:32:49.785Z,23.50
2022-08-11T23:35:51.790Z,23.50
2022-08-11T23:38:42.671Z,23.40
2022-08-11T23:41:29.001Z,23.40
2022-08-11T23:44:14.717Z,23.30
2022-08-11T23:47:03.248Z,23.30
2022-08-11T23:49:49.383Z,23.30
2022-08-11T23:52:36.047Z,23.20
2022-08-11T23:55:22.676Z,23.20
2022-08-11T23:58:08.692Z,23.20
